MVN - Mount Vernon

Pirep is a free, collaborative database of all public and private airports located within the United States. All pilots are welcome to contribute, edit, and improve any airport they have local knowledge about, no registration required.
Uploaded photos will be licensed under a CC BY-SA 4.0 license. Please only upload photos you have the rights to use.
Tags
Public
Food
METAR / TAF
Events
Edit Tags
Camping
Lodging
Car Rental
Bicycles
Swimming
Golfing
Fishing
Hot Springs
Museum
Flying Clubs
Airpark
Upcoming Events
*
*
*

Where exactly on/near the airport is this event taking place?

Is there a webpage with more information for this event?

Who should be contacted for more information?

What is this event all about?

Repeat every
Description
Last updated: 2023-06-14 22:56:32 CDT
Transient Parking
Fuel Location
Landing & Tie-down Fees
Crew Car Availability
Flying Clubs
WiFi Access
Airport Statistics
Location: Mount Vernon, IL
Elevation: 480ft
Sectional: St Louis
Activation date: Apr 1940
Fuel: 100LL, A (prices)
Runway 05/23: 6,496ft
Runway 15/33: 3,146ft
Runway H1: 80ft
Access: Open to the public
Current Weather — VFR
  • Weather data is strictly informational and not for flight planning purposes.
  • METAR
    2024-05-26 04:56:00 CDT
    Ceiling Wind Temperature Dewpoint Weather Visbility
    Sky clear 140° @ 7kt 69°F 66°F N/A 10SM
    Raw: KMVN 260956Z AUTO 14007KT 10SM CLR 21/19 A2970 RMK AO2 SLP056 T02060194 PNO $
  • TAF
    2024-05-26 05:00:00 CDT – 2024-05-26 06:00:00 CDT
    Ceiling Wind Weather Visbility
    20,000ft 140° @ 7kt N/A 6SM
    Clouds: Few @ 3,000ft, Broken @ 20,000ft
    Raw: KMVN 261007Z 2610/2706 14007KT P6SM FEW030 BKN200 FM261100 16010G18KT 5SM SHRA BR VCTS BKN030CB FM261600 19012G22KT P6SM VCSH SCT030 PROB30 2619/2622 3SM TSRA OVC030CB FM262200 20013G22KT 5SM SHRA BR VCTS SCT030CB
  • TAF
    2024-05-26 06:00:00 CDT – 2024-05-26 11:00:00 CDT
    Ceiling Wind Weather Visbility
    3,000ft 160° @ 10kt, gusts 18kt Rain showers, mist, thunderstorm in vicinity 5SM
    Clouds: Broken @ 3,000ft
    Raw: KMVN 261007Z 2610/2706 14007KT P6SM FEW030 BKN200 FM261100 16010G18KT 5SM SHRA BR VCTS BKN030CB FM261600 19012G22KT P6SM VCSH SCT030 PROB30 2619/2622 3SM TSRA OVC030CB FM262200 20013G22KT 5SM SHRA BR VCTS SCT030CB
  • TAF
    2024-05-26 11:00:00 CDT – 2024-05-26 17:00:00 CDT
    Ceiling Wind Weather Visbility
    Sky clear 190° @ 12kt, gusts 22kt Showers in vicinity 6SM
    Clouds: Scattered @ 3,000ft
    Raw: KMVN 261007Z 2610/2706 14007KT P6SM FEW030 BKN200 FM261100 16010G18KT 5SM SHRA BR VCTS BKN030CB FM261600 19012G22KT P6SM VCSH SCT030 PROB30 2619/2622 3SM TSRA OVC030CB FM262200 20013G22KT 5SM SHRA BR VCTS SCT030CB
  • TAF
    2024-05-26 14:00:00 CDT – 2024-05-26 17:00:00 CDT
    Ceiling Wind Weather Visbility
    3,000ft ° @ kt Thunderstorm rain 3SM
    Clouds: Overcast @ 3,000ft
    Raw: KMVN 261007Z 2610/2706 14007KT P6SM FEW030 BKN200 FM261100 16010G18KT 5SM SHRA BR VCTS BKN030CB FM261600 19012G22KT P6SM VCSH SCT030 PROB30 2619/2622 3SM TSRA OVC030CB FM262200 20013G22KT 5SM SHRA BR VCTS SCT030CB
  • TAF
    2024-05-26 17:00:00 CDT – 2024-05-27 01:00:00 CDT
    Ceiling Wind Weather Visbility
    Sky clear 200° @ 13kt, gusts 22kt Rain showers, mist, thunderstorm in vicinity 5SM
    Clouds: Scattered @ 3,000ft
    Raw: KMVN 261007Z 2610/2706 14007KT P6SM FEW030 BKN200 FM261100 16010G18KT 5SM SHRA BR VCTS BKN030CB FM261600 19012G22KT P6SM VCSH SCT030 PROB30 2619/2622 3SM TSRA OVC030CB FM262200 20013G22KT 5SM SHRA BR VCTS SCT030CB
Click/tap to add an annotation marker to the map
Airport Webcams
No webcams added yet.
Direct links to live image URLs will be displayed inline on this page. URLs to separate webpages will be linked to.
URL:
Direct links to live image URLs will be displayed inline on this page. URLs to separate webpages will be linked to.
URL:
Remarks
  • Clsd to skedd acr ops with gtr than 9 pax seats; unsked acr ops gtr than 30 pax seats. 90-day ppr; call 618-242-7016.
  • Sw gen aviation apron clsd excp by ppr ctc amgr.
  • Migratory waterfowl invof arpt.
  • For cd ctc kansas city artcc at 913-254-8508.
  • Actvt malsr ry 23 - ctaf. actvt mirl ry 15/33 & hirl ry 05/23 - ctaf night only.
Comments
Leave a comment What was your experience like at this airport?